createdAt,value
2018-05-12T00:01:33.002Z,55.40
2018-05-12T00:04:00.742Z,55.40
2018-05-12T00:06:28.429Z,55.40
2018-05-12T00:08:56.149Z,55.40
2018-05-12T00:11:24.583Z,55.60
2018-05-12T00:13:52.301Z,55.40
2018-05-12T00:16:20.736Z,55.60
2018-05-12T00:18:48.306Z,55.50
2018-05-12T00:21:15.898Z,55.60
2018-05-12T00:23:43.442Z,55.60
2018-05-12T00:26:11.199Z,55.60
2018-05-12T00:28:38.883Z,55.60
2018-05-12T00:31:06.629Z,55.50
2018-05-12T00:33:34.300Z,55.60
2018-05-12T00:36:02.024Z,55.60
2018-05-12T00:38:29.709Z,55.70
2018-05-12T00:40:57.439Z,55.70
2018-05-12T00:43:25.121Z,55.70
2018-05-12T00:45:53.611Z,55.80
2018-05-12T00:48:22.096Z,55.80
2018-05-12T00:50:50.568Z,55.90
2018-05-12T00:53:19.013Z,55.90
2018-05-12T00:55:46.749Z,55.90
2018-05-12T00:58:14.412Z,55.90
2018-05-12T01:00:42.131Z,55.90
2018-05-12T01:03:09.857Z,56.00
2018-05-12T01:05:37.538Z,56.00
2018-05-12T01:08:05.240Z,56.00
2018-05-12T01:10:32.921Z,56.00
2018-05-12T01:13:00.588Z,56.00
2018-05-12T01:15:28.271Z,56.00
2018-05-12T01:17:56.631Z,56.20
2018-05-12T01:20:24.183Z,56.20
2018-05-12T01:22:51.804Z,56.20
2018-05-12T01:25:19.381Z,56.20
2018-05-12T01:27:46.980Z,56.30
2018-05-12T01:30:14.572Z,56.30
2018-05-12T01:32:42.122Z,56.30
2018-05-12T01:35:09.720Z,56.30
2018-05-12T01:37:37.277Z,56.30
2018-05-12T01:40:05.624Z,56.30
2018-05-12T01:42:33.206Z,56.20
2018-05-12T01:45:00.771Z,56.20
2018-05-12T01:47:28.359Z,56.30
2018-05-12T01:49:56.720Z,56.30
2018-05-12T01:52:24.300Z,56.30
2018-05-12T01:54:52.616Z,56.40
2018-05-12T01:57:20.191Z,56.40
2018-05-12T01:59:47.784Z,56.40
2018-05-12T02:02:15.348Z,56.40
2018-05-12T02:04:42.944Z,56.40
2018-05-12T02:07:11.282Z,56.50
2018-05-12T02:09:38.877Z,56.40
2018-05-12T02:12:06.434Z,56.40
2018-05-12T02:14:34.029Z,56.40
2018-05-12T02:17:01.591Z,56.50
2018-05-12T02:19:29.932Z,56.50
2018-05-12T02:21:57.500Z,56.40
2018-05-12T02:24:25.084Z,56.40
2018-05-12T02:26:52.679Z,56.50
2018-05-12T02:29:20.247Z,56.10
2018-05-12T02:31:47.822Z,56.50
2018-05-12T02:34:15.391Z,56.50
2018-05-12T02:36:42.976Z,56.60
2018-05-12T02:39:10.525Z,56.60
2018-05-12T02:41:38.111Z,56.60
2018-05-12T02:44:05.661Z,56.60
2018-05-12T02:46:33.268Z,56.60
2018-05-12T02:49:01.584Z,56.70
2018-05-12T02:51:29.177Z,56.70
2018-05-12T02:53:56.763Z,56.70
2018-05-12T02:56:24.363Z,56.70
2018-05-12T02:58:52.699Z,56.70
2018-05-12T03:01:20.296Z,56.70
2018-05-12T03:03:47.844Z,56.80
2018-05-12T03:06:15.433Z,56.90
2018-05-12T03:08:43.807Z,56.90
2018-05-12T03:11:11.395Z,56.90
2018-05-12T03:13:39.716Z,56.90
2018-05-12T03:16:07.335Z,56.90
2018-05-12T03:18:35.667Z,56.90
2018-05-12T03:21:03.215Z,56.90
2018-05-12T03:23:30.833Z,56.90
2018-05-12T03:25:59.176Z,57.00
2018-05-12T03:28:26.758Z,56.90
2018-05-12T03:30:54.328Z,56.90
2018-05-12T03:33:21.924Z,56.90
2018-05-12T03:35:50.294Z,56.90
2018-05-12T03:38:17.874Z,56.90
2018-05-12T03:40:46.196Z,56.90
2018-05-12T03:43:13.803Z,56.90
2018-05-12T03:45:42.135Z,56.90
2018-05-12T03:48:09.732Z,56.90
2018-05-12T03:50:37.287Z,56.90
2018-05-12T03:53:04.871Z,56.90
2018-05-12T03:55:32.560Z,56.90
2018-05-12T03:58:00.068Z,56.90
2018-05-12T04:00:27.619Z,56.90
2018-05-12T04:02:55.194Z,56.90
2018-05-12T04:05:34.559Z,56.90
2018-05-12T04:08:14.743Z,56.90
2018-05-12T04:10:43.099Z,56.90
2018-05-12T04:13:10.671Z,56.80
2018-05-12T04:15:38.283Z,56.90
2018-05-12T04:18:06.643Z,56.90
2018-05-12T04:20:35.072Z,57.10
2018-05-12T04:23:03.365Z,57.20
2018-05-12T04:25:30.943Z,57.00
2018-05-12T04:27:58.490Z,57.20
2018-05-12T04:30:26.057Z,57.20
2018-05-12T04:32:53.732Z,57.30
2018-05-12T04:35:21.343Z,57.30
2018-05-12T04:37:49.667Z,57.30
2018-05-12T04:40:17.241Z,57.40
2018-05-12T04:42:44.842Z,57.30
2018-05-12T04:45:13.361Z,57.40
2018-05-12T04:47:40.917Z,57.40
2018-05-12T04:50:08.474Z,57.30
2018-05-12T04:52:36.060Z,57.40
2018-05-12T04:55:03.625Z,57.40
2018-05-12T04:57:31.216Z,57.40
2018-05-12T04:59:58.779Z,57.40
2018-05-12T05:02:26.378Z,57.50
2018-05-12T05:04:54.711Z,57.50
2018-05-12T05:07:22.305Z,57.50
2018-05-12T05:09:49.857Z,57.50
2018-05-12T05:12:17.461Z,57.50
2018-05-12T05:14:45.799Z,57.60
2018-05-12T05:17:13.391Z,57.50
2018-05-12T05:19:40.947Z,57.50
2018-05-12T05:22:08.507Z,57.50
2018-05-12T05:24:36.093Z,57.50
2018-05-12T05:27:03.685Z,57.70
2018-05-12T05:29:31.246Z,57.70
2018-05-12T05:31:59.574Z,57.70
2018-05-12T05:34:27.188Z,57.60
2018-05-12T05:36:55.521Z,57.70
2018-05-12T05:39:23.108Z,57.70
2018-05-12T05:41:50.660Z,57.70
2018-05-12T05:44:18.234Z,57.70
2018-05-12T05:46:46.584Z,57.70
2018-05-12T05:49:14.171Z,57.80
2018-05-12T05:51:41.726Z,57.70
2018-05-12T05:54:09.323Z,57.70
2018-05-12T05:56:36.903Z,57.70
2018-05-12T05:59:04.502Z,58.00
2018-05-12T06:01:32.088Z,58.20
2018-05-12T06:03:59.671Z,58.20
2018-05-12T06:06:27.231Z,58.30
2018-05-12T06:08:54.833Z,58.30
2018-05-12T06:11:22.403Z,58.30
2018-05-12T06:13:50.761Z,58.20
2018-05-12T06:16:18.320Z,58.20
2018-05-12T06:18:45.907Z,58.30
2018-05-12T06:21:14.229Z,58.30
2018-05-12T06:23:41.841Z,58.30
2018-05-12T06:26:10.167Z,58.90
2018-05-12T06:28:37.720Z,58.30
2018-05-12T06:31:05.320Z,58.40
2018-05-12T06:33:32.919Z,58.40
2018-05-12T06:36:00.499Z,58.40
2018-05-12T06:38:28.829Z,58.50
2018-05-12T06:40:56.423Z,58.50
2018-05-12T06:43:24.013Z,58.50
2018-05-12T06:45:51.617Z,58.60
2018-05-12T06:48:19.359Z,58.60
2018-05-12T06:50:47.015Z,58.50
2018-05-12T06:53:14.617Z,58.50
2018-05-12T06:55:42.195Z,58.40
2018-05-12T06:58:09.753Z,58.50
2018-05-12T07:00:37.359Z,58.20
2018-05-12T07:03:05.691Z,59.00
2018-05-12T07:05:33.288Z,58.50
2018-05-12T07:08:00.868Z,58.50
2018-05-12T07:10:28.430Z,58.40
2018-05-12T07:12:56.033Z,58.30
2018-05-12T07:15:23.600Z,58.20
2018-05-12T07:17:51.199Z,58.10
2018-05-12T07:20:18.767Z,58.10
2018-05-12T07:22:46.358Z,58.10
2018-05-12T07:25:14.690Z,58.00
2018-05-12T07:27:42.283Z,58.00
2018-05-12T07:30:09.853Z,57.90
2018-05-12T07:32:37.455Z,57.90
2018-05-12T07:35:05.070Z,58.00
2018-05-12T07:37:32.649Z,58.00
2018-05-12T07:40:00.221Z,58.00
2018-05-12T07:42:27.814Z,58.00
2018-05-12T07:44:56.141Z,58.00
2018-05-12T07:47:23.736Z,58.00
2018-05-12T07:49:51.306Z,57.90
2018-05-12T07:52:18.871Z,57.90
2018-05-12T07:54:46.476Z,58.50
2018-05-12T07:57:14.030Z,57.80
2018-05-12T07:59:41.639Z,57.70
2018-05-12T08:02:09.191Z,57.70
2018-05-12T08:04:36.774Z,57.70
2018-05-12T08:07:04.331Z,57.70
2018-05-12T08:09:31.920Z,57.60
2018-05-12T08:11:59.499Z,57.50
2018-05-12T08:14:27.912Z,58.20
2018-05-12T08:16:55.483Z,57.50
2018-05-12T08:19:23.122Z,57.60
2018-05-12T08:21:51.443Z,57.50
2018-05-12T08:24:19.023Z,57.50
2018-05-12T08:26:46.632Z,57.40
2018-05-12T08:29:14.966Z,57.60
2018-05-12T08:31:42.579Z,57.60
2018-05-12T08:34:10.903Z,57.60
2018-05-12T08:36:39.276Z,57.50
2018-05-12T08:39:06.835Z,57.50
2018-05-12T08:41:34.415Z,57.50
2018-05-12T08:44:01.976Z,57.50
2018-05-12T08:46:29.570Z,57.50
2018-05-12T08:48:57.140Z,57.50
2018-05-12T08:51:24.739Z,57.50
2018-05-12T08:56:24.083Z,57.30
2018-05-12T08:58:51.660Z,57.40
2018-05-12T09:01:19.331Z,57.50
2018-05-12T09:03:46.936Z,57.30
2018-05-12T09:06:14.525Z,57.30
2018-05-12T09:08:42.844Z,57.20
2018-05-12T09:11:10.458Z,57.20
2018-05-12T09:13:38.021Z,57.20
2018-05-12T09:16:05.583Z,56.50
2018-05-12T09:18:33.170Z,57.30
2018-05-12T09:21:01.527Z,57.10
2018-05-12T09:23:29.129Z,57.10
2018-05-12T09:25:56.714Z,56.90
2018-05-12T09:28:24.296Z,56.80
2018-05-12T09:30:51.877Z,56.90
2018-05-12T09:33:19.447Z,56.70
2018-05-12T09:35:47.056Z,56.70
2018-05-12T09:38:15.383Z,56.50
2018-05-12T09:40:42.972Z,56.40
2018-05-12T09:43:10.568Z,56.40
2018-05-12T09:45:38.122Z,56.40
2018-05-12T09:48:06.471Z,56.30
2018-05-12T09:50:34.028Z,56.20
2018-05-12T09:53:01.650Z,56.10
2018-05-12T09:55:29.211Z,56.20
2018-05-12T09:57:56.759Z,56.20
2018-05-12T10:00:25.106Z,56.20
2018-05-12T10:02:52.685Z,56.20
2018-05-12T10:05:20.276Z,56.20
2018-05-12T10:07:48.591Z,56.00
2018-05-12T10:10:16.174Z,56.00
2018-05-12T10:12:43.841Z,55.90
2018-05-12T10:15:11.402Z,55.90
2018-05-12T10:17:38.956Z,55.90
2018-05-12T10:20:07.329Z,55.80
2018-05-12T10:22:34.877Z,55.80
2018-05-12T10:25:02.452Z,55.90
2018-05-12T10:27:30.012Z,55.80
2018-05-12T10:29:57.631Z,55.80
2018-05-12T10:32:25.196Z,55.70
2018-05-12T10:34:52.830Z,55.60
2018-05-12T10:37:20.426Z,55.60
2018-05-12T10:39:48.662Z,55.40
2018-05-12T10:42:16.266Z,55.50
2018-05-12T10:44:43.880Z,55.50
2018-05-12T10:47:11.501Z,55.50
2018-05-12T10:49:39.059Z,55.60
2018-05-12T10:52:06.645Z,55.50
2018-05-12T10:54:34.383Z,55.50
2018-05-12T10:57:02.021Z,55.40
2018-05-12T10:59:29.561Z,55.40
2018-05-12T11:01:57.991Z,55.20
2018-05-12T11:04:25.560Z,55.10
2018-05-12T11:06:53.188Z,55.10
2018-05-12T11:09:21.518Z,54.60
2018-05-12T11:11:49.143Z,54.50
2018-05-12T11:14:16.699Z,54.30
2018-05-12T11:16:45.020Z,54.10
2018-05-12T11:19:12.605Z,54.10
2018-05-12T11:21:40.280Z,54.30
2018-05-12T11:24:08.621Z,54.90
2018-05-12T11:26:36.284Z,54.30
2018-05-12T11:29:03.787Z,54.40
2018-05-12T11:31:31.359Z,54.10
2018-05-12T11:33:59.728Z,53.20
2018-05-12T11:36:27.286Z,53.60
2018-05-12T11:38:54.879Z,53.40
2018-05-12T11:41:22.434Z,53.20
2018-05-12T11:43:50.018Z,53.10
2018-05-12T11:46:18.341Z,52.60
2018-05-12T11:48:46.704Z,52.30
2018-05-12T11:51:14.267Z,52.20
2018-05-12T11:53:41.858Z,52.20
2018-05-12T11:56:09.415Z,51.90
2018-05-12T11:58:37.775Z,51.30
2018-05-12T12:01:05.371Z,51.50
2018-05-12T12:03:32.926Z,51.40
2018-05-12T12:06:00.738Z,51.20
2018-05-12T12:08:28.298Z,51.10
2018-05-12T12:10:55.861Z,50.90
2018-05-12T12:13:23.613Z,50.60
2018-05-12T12:15:51.263Z,50.60
2018-05-12T12:18:18.902Z,50.70
2018-05-12T12:20:46.619Z,50.60
2018-05-12T12:23:14.320Z,50.50
2018-05-12T12:25:42.181Z,50.30
2018-05-12T12:28:09.742Z,50.30
2018-05-12T12:30:37.329Z,50.00
2018-05-12T12:33:05.667Z,50.20
2018-05-12T12:35:33.342Z,50.10
2018-05-12T12:38:01.724Z,50.00
2018-05-12T12:40:29.312Z,50.00
2018-05-12T12:42:56.858Z,49.90
2018-05-12T12:45:24.428Z,49.80
2018-05-12T12:47:51.988Z,49.60
2018-05-12T12:50:19.569Z,49.50
2018-05-12T12:52:47.147Z,49.40
2018-05-12T12:55:14.733Z,49.30
2018-05-12T12:57:42.285Z,49.30
2018-05-12T13:00:09.859Z,49.20
2018-05-12T13:02:37.517Z,48.80
2018-05-12T13:05:05.864Z,48.90
2018-05-12T13:07:33.452Z,48.80
2018-05-12T13:10:01.778Z,48.70
2018-05-12T13:12:29.351Z,48.70
2018-05-12T13:14:56.919Z,48.70
2018-05-12T13:17:24.490Z,48.70
2018-05-12T13:19:52.079Z,48.60
2018-05-12T13:22:19.769Z,48.50
2018-05-12T13:24:47.511Z,48.30
2018-05-12T13:27:15.074Z,48.20
2018-05-12T13:29:42.643Z,48.10
2018-05-12T13:32:10.300Z,48.10
2018-05-12T13:34:37.864Z,48.00
2018-05-12T13:37:05.470Z,47.90
2018-05-12T13:39:33.832Z,47.90
2018-05-12T13:42:01.387Z,47.80
2018-05-12T13:44:28.986Z,48.50
2018-05-12T13:46:58.184Z,47.80
2018-05-12T13:49:26.523Z,47.70
2018-05-12T13:51:54.108Z,47.60
2018-05-12T13:54:21.701Z,47.60
2018-05-12T13:56:50.127Z,47.50
2018-05-12T13:59:17.916Z,47.40
2018-05-12T14:01:45.551Z,47.40
2018-05-12T14:04:13.130Z,47.30
2018-05-12T14:06:40.677Z,47.20
2018-05-12T14:09:08.564Z,47.40
2018-05-12T14:11:36.946Z,47.30
2018-05-12T14:14:04.529Z,47.30
2018-05-12T14:16:32.082Z,47.20
2018-05-12T14:18:59.667Z,46.90
2018-05-12T14:21:27.229Z,46.70
2018-05-12T14:23:54.822Z,46.60
2018-05-12T14:26:23.232Z,46.70
2018-05-12T14:28:50.805Z,46.70
2018-05-12T14:31:18.478Z,46.70
2018-05-12T14:33:47.056Z,46.80
2018-05-12T14:36:14.631Z,46.80
2018-05-12T14:38:42.215Z,46.80
2018-05-12T14:41:09.759Z,46.80
2018-05-12T14:43:37.302Z,46.80
2018-05-12T14:46:04.884Z,46.80
2018-05-12T14:48:32.454Z,46.70
2018-05-12T14:51:00.094Z,46.70
2018-05-12T14:53:27.633Z,46.80
2018-05-12T14:55:55.352Z,46.80
2018-05-12T14:58:23.806Z,46.70
2018-05-12T15:00:51.401Z,46.70
2018-05-12T15:03:18.947Z,46.70
2018-05-12T15:05:46.524Z,46.70
2018-05-12T15:08:14.074Z,46.60
2018-05-12T15:10:41.680Z,46.60
2018-05-12T15:13:09.222Z,46.40
2018-05-12T15:15:37.562Z,46.50
2018-05-12T15:18:05.138Z,46.60
2018-05-12T15:20:33.480Z,46.50
2018-05-12T15:23:01.044Z,46.40
2018-05-12T15:25:28.679Z,46.60
2018-05-12T15:27:56.335Z,46.60
2018-05-12T15:30:24.274Z,46.60
2018-05-12T15:32:51.884Z,46.60
2018-05-12T15:35:19.481Z,46.60
2018-05-12T15:37:47.886Z,46.60
2018-05-12T15:40:15.535Z,46.60
2018-05-12T15:42:43.126Z,46.60
2018-05-12T15:45:10.671Z,46.60
2018-05-12T15:47:38.244Z,46.60
2018-05-12T15:50:05.779Z,46.60
2018-05-12T15:52:33.348Z,46.60
2018-05-12T15:55:00.908Z,46.60
2018-05-12T15:57:28.649Z,46.60
2018-05-12T15:59:56.183Z,46.60
2018-05-12T16:02:24.513Z,47.00
2018-05-12T16:04:52.067Z,46.50
2018-05-12T16:07:19.645Z,46.50
2018-05-12T16:09:47.265Z,46.40
2018-05-12T16:12:15.685Z,46.90
2018-05-12T16:14:43.186Z,46.80
2018-05-12T16:17:10.806Z,46.90
2018-05-12T16:19:38.401Z,46.90
2018-05-12T16:22:06.005Z,45.90
2018-05-12T16:24:34.371Z,46.40
2018-05-12T16:27:01.930Z,46.40
2018-05-12T16:29:29.581Z,46.50
2018-05-12T16:31:57.286Z,46.50
2018-05-12T16:34:24.879Z,46.60
2018-05-12T16:36:52.448Z,46.60
2018-05-12T16:39:20.041Z,46.70
2018-05-12T16:41:47.624Z,46.60
2018-05-12T16:44:15.186Z,46.60
2018-05-12T16:46:42.747Z,46.70
2018-05-12T16:49:10.304Z,46.60
2018-05-12T16:51:37.867Z,46.60
2018-05-12T16:54:05.505Z,46.70
2018-05-12T16:56:33.056Z,46.70
2018-05-12T16:59:01.416Z,46.80
2018-05-12T17:01:29.750Z,46.80
2018-05-12T17:03:57.324Z,46.80
2018-05-12T17:06:25.077Z,46.80
2018-05-12T17:08:52.589Z,46.80
2018-05-12T17:11:20.948Z,47.40
2018-05-12T17:13:48.607Z,46.80
2018-05-12T17:16:16.177Z,46.80
2018-05-12T17:18:43.706Z,46.80
2018-05-12T17:21:11.259Z,46.80
2018-05-12T17:23:39.606Z,46.90
2018-05-12T17:26:07.169Z,46.90
2018-05-12T17:28:34.733Z,47.00
2018-05-12T17:31:02.318Z,47.00
2018-05-12T17:33:29.919Z,47.00
2018-05-12T17:35:57.506Z,47.00
2018-05-12T17:38:25.058Z,47.00
2018-05-12T17:40:52.605Z,47.20
2018-05-12T17:43:20.286Z,47.10
2018-05-12T17:45:47.867Z,47.20
2018-05-12T17:48:15.430Z,47.20
2018-05-12T17:50:43.014Z,47.30
2018-05-12T17:53:10.626Z,47.40
2018-05-12T17:55:39.046Z,47.50
2018-05-12T17:58:06.562Z,47.50
2018-05-12T18:00:34.998Z,47.60
2018-05-12T18:03:02.597Z,47.60
2018-05-12T18:05:30.182Z,47.70
2018-05-12T18:07:58.537Z,47.80
2018-05-12T18:10:26.090Z,47.70
2018-05-12T18:12:53.683Z,47.80
2018-05-12T18:15:21.251Z,47.90
2018-05-12T18:17:49.598Z,48.00
2018-05-12T18:20:17.149Z,48.00
2018-05-12T18:22:44.730Z,48.20
2018-05-12T18:25:12.273Z,48.30
2018-05-12T18:27:39.881Z,48.20
2018-05-12T18:30:07.441Z,48.20
2018-05-12T18:32:35.000Z,48.40
2018-05-12T18:35:02.653Z,48.50
2018-05-12T18:37:30.169Z,48.50
2018-05-12T18:39:57.760Z,48.60
2018-05-12T18:42:25.383Z,48.70
2018-05-12T18:44:53.722Z,48.80
2018-05-12T18:47:21.348Z,48.80
2018-05-12T18:49:49.748Z,49.10
2018-05-12T18:52:17.299Z,49.10
2018-05-12T18:54:44.887Z,49.30
2018-05-12T18:57:12.445Z,49.20
2018-05-12T18:59:40.036Z,49.30
2018-05-12T19:02:07.592Z,49.40
2018-05-12T19:04:35.163Z,49.50
2018-05-12T19:07:02.693Z,49.70
2018-05-12T19:09:30.255Z,49.70
2018-05-12T19:11:57.800Z,49.90
2018-05-12T19:14:26.145Z,50.10
2018-05-12T19:16:53.688Z,50.10
2018-05-12T19:19:21.312Z,50.20
2018-05-12T19:21:49.640Z,50.20
2018-05-12T19:24:17.243Z,50.20
2018-05-12T19:26:44.776Z,50.40
2018-05-12T19:29:12.327Z,50.40
2018-05-12T19:31:39.907Z,50.50
2018-05-12T19:34:07.479Z,51.20
2018-05-12T19:36:35.056Z,50.70
2018-05-12T19:39:02.614Z,50.80
2018-05-12T19:41:30.194Z,50.90
2018-05-12T19:43:57.774Z,50.90
2018-05-12T19:46:26.112Z,51.20
2018-05-12T19:48:53.671Z,51.20
2018-05-12T19:51:21.256Z,51.20
2018-05-12T19:53:48.806Z,51.20
2018-05-12T19:56:16.381Z,51.10
2018-05-12T19:58:43.927Z,51.20
2018-05-12T20:01:11.507Z,51.20
2018-05-12T20:03:39.078Z,51.40
2018-05-12T20:06:06.694Z,51.50
2018-05-12T20:08:34.269Z,51.60
2018-05-12T20:11:01.923Z,51.70
2018-05-12T20:13:29.498Z,51.80
2018-05-12T20:15:57.119Z,51.80
2018-05-12T20:18:24.715Z,51.90
2018-05-12T20:20:52.350Z,51.90
2018-05-12T20:23:19.975Z,52.00
2018-05-12T20:25:47.564Z,52.10
2018-05-12T20:28:15.148Z,52.20
2018-05-12T20:30:42.726Z,52.10
2018-05-12T20:33:10.358Z,52.30
2018-05-12T20:35:37.902Z,52.40
2018-05-12T20:38:05.486Z,52.40
2018-05-12T20:40:33.336Z,52.50
2018-05-12T20:43:00.944Z,52.60
2018-05-12T20:45:28.503Z,52.60
2018-05-12T20:47:56.092Z,52.70
2018-05-12T20:50:24.416Z,53.10
2018-05-12T20:52:52.011Z,52.70
2018-05-12T20:55:19.562Z,52.80
2018-05-12T20:57:47.164Z,52.90
2018-05-12T21:00:14.720Z,53.00
2018-05-12T21:02:42.304Z,53.00
2018-05-12T21:05:10.636Z,53.20
2018-05-12T21:07:38.213Z,53.10
2018-05-12T21:10:05.771Z,53.20
2018-05-12T21:12:33.357Z,53.20
2018-05-12T21:15:01.318Z,53.20
2018-05-12T21:17:28.903Z,53.20
2018-05-12T21:19:56.483Z,53.30
2018-05-12T21:22:24.796Z,53.60
2018-05-12T21:24:53.146Z,53.60
2018-05-12T21:27:22.577Z,53.70
2018-05-12T21:29:50.154Z,53.50
2018-05-12T21:32:17.718Z,53.70
2018-05-12T21:34:46.070Z,53.70
2018-05-12T21:37:14.382Z,53.70
2018-05-12T21:39:42.031Z,53.60
2018-05-12T21:42:09.641Z,53.60
2018-05-12T21:44:37.187Z,53.70
2018-05-12T21:47:04.762Z,53.70
2018-05-12T21:49:32.393Z,53.70
2018-05-12T21:52:00.000Z,53.80
2018-05-12T21:54:27.556Z,53.80
2018-05-12T21:56:55.145Z,53.80
2018-05-12T21:59:22.740Z,53.90
2018-05-12T22:01:51.090Z,54.00
2018-05-12T22:04:24.421Z,53.90
2018-05-12T22:06:52.798Z,54.10
2018-05-12T22:09:21.119Z,54.20
2018-05-12T22:11:48.706Z,54.20
2018-05-12T22:14:16.262Z,54.20
2018-05-12T22:16:43.863Z,54.30
2018-05-12T22:19:11.418Z,54.40
2018-05-12T22:21:39.062Z,54.50
2018-05-12T22:24:06.678Z,54.40
2018-05-12T22:26:34.991Z,54.60
2018-05-12T22:29:02.637Z,54.50
2018-05-12T22:31:30.257Z,54.60
2018-05-12T22:33:57.852Z,54.70
2018-05-12T22:36:26.213Z,54.70
2018-05-12T22:38:53.892Z,54.60
2018-05-12T22:41:21.501Z,54.60
2018-05-12T22:43:49.101Z,54.70
2018-05-12T22:46:30.451Z,54.70
2018-05-12T22:48:58.183Z,54.80
2018-05-12T22:51:26.526Z,55.00
2018-05-12T22:53:54.118Z,55.00
2018-05-12T22:56:21.677Z,55.00
2018-05-12T22:58:49.280Z,55.10
2018-05-12T23:01:16.836Z,55.20
2018-05-12T23:03:44.475Z,55.20
2018-05-12T23:06:12.066Z,55.30
2018-05-12T23:08:39.689Z,55.40
2018-05-12T23:11:07.261Z,55.40
2018-05-12T23:13:34.862Z,55.50
2018-05-12T23:16:03.189Z,55.60
2018-05-12T23:18:30.859Z,55.50
2018-05-12T23:20:58.427Z,55.60
2018-05-12T23:23:25.986Z,55.70
2018-05-12T23:25:54.400Z,55.90
2018-05-12T23:28:21.997Z,55.80
2018-05-12T23:30:49.627Z,55.90
2018-05-12T23:33:17.255Z,55.90
2018-05-12T23:35:44.876Z,55.90
2018-05-12T23:38:13.219Z,56.00
2018-05-12T23:40:40.793Z,55.90
2018-05-12T23:43:08.371Z,55.90
2018-05-12T23:45:35.972Z,56.00
2018-05-12T23:48:03.532Z,56.10
2018-05-12T23:50:31.254Z,56.10
2018-05-12T23:52:58.920Z,56.20
2018-05-12T23:55:26.586Z,56.30
2018-05-12T23:57:54.273Z,56.20
